sensor_id;sensor_type;location;lat;lon;timestamp;temperature;humidity
15131;DHT22;7666;50.920;4.628;2023-06-22T00:00:20;20.90;99.90
15131;DHT22;7666;50.920;4.628;2023-06-22T00:03:07;20.90;99.90
15131;DHT22;7666;50.920;4.628;2023-06-22T00:05:53;20.90;99.90
15131;DHT22;7666;50.920;4.628;2023-06-22T00:08:40;20.80;99.90
15131;DHT22;7666;50.920;4.628;2023-06-22T00:11:26;20.80;99.90
15131;DHT22;7666;50.920;4.628;2023-06-22T00:14:13;20.80;99.90
15131;DHT22;7666;50.920;4.628;2023-06-22T00:16:59;20.80;99.90
15131;DHT22;7666;50.920;4.628;2023-06-22T00:19:47;20.70;99.90
15131;DHT22;7666;50.920;4.628;2023-06-22T00:22:33;20.70;99.90
15131;DHT22;7666;50.920;4.628;2023-06-22T00:25:24;20.70;99.90
15131;DHT22;7666;50.920;4.628;2023-06-22T00:28:10;20.60;99.90
15131;DHT22;7666;50.920;4.628;2023-06-22T00:30:56;20.50;99.90
15131;DHT22;7666;50.920;4.628;2023-06-22T00:33:42;20.50;99.90
15131;DHT22;7666;50.920;4.628;2023-06-22T00:36:28;20.40;99.90
15131;DHT22;7666;50.920;4.628;2023-06-22T00:39:14;20.40;99.90
15131;DHT22;7666;50.920;4.628;2023-06-22T00:42:00;20.30;99.90
15131;DHT22;7666;50.920;4.628;2023-06-22T00:44:46;20.30;99.90
15131;DHT22;7666;50.920;4.628;2023-06-22T00:47:34;20.30;99.90
15131;DHT22;7666;50.920;4.628;2023-06-22T00:50:24;20.40;99.90
15131;DHT22;7666;50.920;4.628;2023-06-22T00:53:10;20.30;99.90
15131;DHT22;7666;50.920;4.628;2023-06-22T00:55:57;20.40;99.90
15131;DHT22;7666;50.920;4.628;2023-06-22T00:58:46;20.30;99.90
15131;DHT22;7666;50.920;4.628;2023-06-22T01:01:33;20.40;99.90
15131;DHT22;7666;50.920;4.628;2023-06-22T01:04:20;20.40;99.90
15131;DHT22;7666;50.920;4.628;2023-06-22T01:13:35;20.40;99.90
15131;DHT22;7666;50.920;4.628;2023-06-22T01:16:29;20.40;99.90
15131;DHT22;7666;50.920;4.628;2023-06-22T01:22:30;20.40;99.90
15131;DHT22;7666;50.920;4.628;2023-06-22T01:25:26;20.40;99.90
15131;DHT22;7666;50.920;4.628;2023-06-22T01:31:28;20.40;99.90
15131;DHT22;7666;50.920;4.628;2023-06-22T01:34:16;20.40;99.90
15131;DHT22;7666;50.920;4.628;2023-06-22T01:37:03;20.30;99.90
15131;DHT22;7666;50.920;4.628;2023-06-22T01:39:50;20.30;99.90
15131;DHT22;7666;50.920;4.628;2023-06-22T01:42:37;20.20;99.90
15131;DHT22;7666;50.920;4.628;2023-06-22T01:45:24;20.20;99.90
15131;DHT22;7666;50.920;4.628;2023-06-22T01:48:10;20.10;99.90
15131;DHT22;7666;50.920;4.628;2023-06-22T01:50:56;20.00;99.90
15131;DHT22;7666;50.920;4.628;2023-06-22T01:53:42;19.90;99.90
15131;DHT22;7666;50.920;4.628;2023-06-22T01:56:28;19.90;99.90
15131;DHT22;7666;50.920;4.628;2023-06-22T01:59:44;19.80;99.90
15131;DHT22;7666;50.920;4.628;2023-06-22T02:02:36;19.80;99.90
15131;DHT22;7666;50.920;4.628;2023-06-22T02:05:26;19.80;99.90
15131;DHT22;7666;50.920;4.628;2023-06-22T02:08:22;19.70;99.90
15131;DHT22;7666;50.920;4.628;2023-06-22T02:11:10;19.60;99.90
15131;DHT22;7666;50.920;4.628;2023-06-22T02:13:57;19.60;99.90
15131;DHT22;7666;50.920;4.628;2023-06-22T02:16:44;19.60;99.90
15131;DHT22;7666;50.920;4.628;2023-06-22T02:19:30;19.50;99.90
15131;DHT22;7666;50.920;4.628;2023-06-22T02:22:18;19.40;99.90
15131;DHT22;7666;50.920;4.628;2023-06-22T02:25:05;19.30;99.90
15131;DHT22;7666;50.920;4.628;2023-06-22T02:27:51;19.20;99.90
15131;DHT22;7666;50.920;4.628;2023-06-22T02:30:37;19.10;99.90
15131;DHT22;7666;50.920;4.628;2023-06-22T02:33:23;19.10;99.90
15131;DHT22;7666;50.920;4.628;2023-06-22T02:36:09;19.20;99.90
15131;DHT22;7666;50.920;4.628;2023-06-22T02:38:59;19.20;99.90
15131;DHT22;7666;50.920;4.628;2023-06-22T02:41:46;19.20;99.90
15131;DHT22;7666;50.920;4.628;2023-06-22T02:44:32;19.10;99.90
15131;DHT22;7666;50.920;4.628;2023-06-22T02:47:18;19.10;99.90
15131;DHT22;7666;50.920;4.628;2023-06-22T02:50:05;19.10;99.90
15131;DHT22;7666;50.920;4.628;2023-06-22T02:52:51;19.10;99.90
15131;DHT22;7666;50.920;4.628;2023-06-22T02:55:37;19.10;99.90
15131;DHT22;7666;50.920;4.628;2023-06-22T02:58:23;19.10;99.90
15131;DHT22;7666;50.920;4.628;2023-06-22T03:01:10;19.10;99.90
15131;DHT22;7666;50.920;4.628;2023-06-22T03:03:58;19.20;99.90
15131;DHT22;7666;50.920;4.628;2023-06-22T03:06:44;19.10;99.90
15131;DHT22;7666;50.920;4.628;2023-06-22T03:09:36;19.00;99.90
15131;DHT22;7666;50.920;4.628;2023-06-22T03:12:22;19.00;99.90
15131;DHT22;7666;50.920;4.628;2023-06-22T03:15:12;18.90;99.90
15131;DHT22;7666;50.920;4.628;2023-06-22T03:17:58;18.80;99.90
15131;DHT22;7666;50.920;4.628;2023-06-22T03:20:44;18.70;99.90
15131;DHT22;7666;50.920;4.628;2023-06-22T03:23:30;18.70;99.90
15131;DHT22;7666;50.920;4.628;2023-06-22T03:26:17;18.60;99.90
15131;DHT22;7666;50.920;4.628;2023-06-22T03:29:03;18.60;99.90
15131;DHT22;7666;50.920;4.628;2023-06-22T03:31:49;18.60;99.90
15131;DHT22;7666;50.920;4.628;2023-06-22T03:34:36;18.60;99.90
15131;DHT22;7666;50.920;4.628;2023-06-22T03:37:22;18.60;99.90
15131;DHT22;7666;50.920;4.628;2023-06-22T03:40:08;18.60;99.90
15131;DHT22;7666;50.920;4.628;2023-06-22T03:42:55;18.60;99.90
15131;DHT22;7666;50.920;4.628;2023-06-22T03:45:41;18.60;99.90
15131;DHT22;7666;50.920;4.628;2023-06-22T03:48:27;18.60;99.90
15131;DHT22;7666;50.920;4.628;2023-06-22T03:51:13;18.60;99.90
15131;DHT22;7666;50.920;4.628;2023-06-22T03:53:59;18.70;99.90
15131;DHT22;7666;50.920;4.628;2023-06-22T03:56:45;18.70;99.90
15131;DHT22;7666;50.920;4.628;2023-06-22T03:59:31;18.80;99.90
15131;DHT22;7666;50.920;4.628;2023-06-22T04:02:18;18.80;99.90
15131;DHT22;7666;50.920;4.628;2023-06-22T04:05:04;18.90;99.90
15131;DHT22;7666;50.920;4.628;2023-06-22T04:07:50;18.90;99.90
15131;DHT22;7666;50.920;4.628;2023-06-22T04:10:36;19.00;99.90
15131;DHT22;7666;50.920;4.628;2023-06-22T04:13:22;19.00;99.90
15131;DHT22;7666;50.920;4.628;2023-06-22T04:16:08;19.00;99.90
15131;DHT22;7666;50.920;4.628;2023-06-22T04:18:54;19.00;99.90
15131;DHT22;7666;50.920;4.628;2023-06-22T04:21:40;19.10;99.90
15131;DHT22;7666;50.920;4.628;2023-06-22T04:24:26;19.10;99.90
15131;DHT22;7666;50.920;4.628;2023-06-22T04:27:12;19.10;99.90
15131;DHT22;7666;50.920;4.628;2023-06-22T04:29:58;19.10;99.90
15131;DHT22;7666;50.920;4.628;2023-06-22T04:32:46;19.10;99.90
15131;DHT22;7666;50.920;4.628;2023-06-22T04:35:45;19.10;99.90
15131;DHT22;7666;50.920;4.628;2023-06-22T04:38:31;19.20;99.90
15131;DHT22;7666;50.920;4.628;2023-06-22T04:41:19;19.20;99.90
15131;DHT22;7666;50.920;4.628;2023-06-22T04:44:10;19.20;99.90
15131;DHT22;7666;50.920;4.628;2023-06-22T04:46:57;19.20;99.90
15131;DHT22;7666;50.920;4.628;2023-06-22T04:49:46;19.10;99.90
15131;DHT22;7666;50.920;4.628;2023-06-22T04:52:32;19.00;99.90
15131;DHT22;7666;50.920;4.628;2023-06-22T04:55:19;19.10;99.90
15131;DHT22;7666;50.920;4.628;2023-06-22T04:58:05;19.10;99.90
15131;DHT22;7666;50.920;4.628;2023-06-22T05:00:51;19.10;99.90
15131;DHT22;7666;50.920;4.628;2023-06-22T05:03:37;19.10;99.90
15131;DHT22;7666;50.920;4.628;2023-06-22T05:06:24;19.20;99.90
15131;DHT22;7666;50.920;4.628;2023-06-22T05:09:10;19.20;99.90
15131;DHT22;7666;50.920;4.628;2023-06-22T05:11:57;19.20;99.90
15131;DHT22;7666;50.920;4.628;2023-06-22T05:14:45;19.20;99.90
15131;DHT22;7666;50.920;4.628;2023-06-22T05:17:31;19.20;99.90
15131;DHT22;7666;50.920;4.628;2023-06-22T05:20:17;19.30;99.90
15131;DHT22;7666;50.920;4.628;2023-06-22T05:23:04;19.30;99.90
15131;DHT22;7666;50.920;4.628;2023-06-22T05:25:51;19.40;99.90
15131;DHT22;7666;50.920;4.628;2023-06-22T05:28:37;19.30;99.90
15131;DHT22;7666;50.920;4.628;2023-06-22T05:31:23;19.30;99.90
15131;DHT22;7666;50.920;4.628;2023-06-22T05:34:09;19.40;99.90
15131;DHT22;7666;50.920;4.628;2023-06-22T05:36:55;19.40;99.90
15131;DHT22;7666;50.920;4.628;2023-06-22T05:39:41;19.50;99.90
15131;DHT22;7666;50.920;4.628;2023-06-22T05:42:27;19.50;99.90
15131;DHT22;7666;50.920;4.628;2023-06-22T05:45:14;19.50;99.90
15131;DHT22;7666;50.920;4.628;2023-06-22T05:48:00;19.50;99.90
15131;DHT22;7666;50.920;4.628;2023-06-22T05:50:47;19.50;99.90
15131;DHT22;7666;50.920;4.628;2023-06-22T05:53:33;19.60;99.90
15131;DHT22;7666;50.920;4.628;2023-06-22T05:56:19;19.60;99.90
15131;DHT22;7666;50.920;4.628;2023-06-22T05:59:05;19.70;99.90
15131;DHT22;7666;50.920;4.628;2023-06-22T06:01:51;19.70;99.90
15131;DHT22;7666;50.920;4.628;2023-06-22T06:04:37;19.80;99.90
15131;DHT22;7666;50.920;4.628;2023-06-22T06:07:23;19.80;99.90
15131;DHT22;7666;50.920;4.628;2023-06-22T06:10:10;19.80;99.90
15131;DHT22;7666;50.920;4.628;2023-06-22T06:12:56;19.70;99.90
15131;DHT22;7666;50.920;4.628;2023-06-22T06:15:42;19.70;99.90
15131;DHT22;7666;50.920;4.628;2023-06-22T06:18:28;19.60;99.90
15131;DHT22;7666;50.920;4.628;2023-06-22T06:21:14;19.60;99.90
15131;DHT22;7666;50.920;4.628;2023-06-22T06:24:00;19.60;99.90
15131;DHT22;7666;50.920;4.628;2023-06-22T06:26:46;19.60;99.90
15131;DHT22;7666;50.920;4.628;2023-06-22T06:29:32;19.60;99.90
15131;DHT22;7666;50.920;4.628;2023-06-22T06:32:18;19.70;99.90
15131;DHT22;7666;50.920;4.628;2023-06-22T06:35:06;19.70;99.90
15131;DHT22;7666;50.920;4.628;2023-06-22T06:37:52;19.80;99.90
15131;DHT22;7666;50.920;4.628;2023-06-22T06:40:38;19.90;99.90
15131;DHT22;7666;50.920;4.628;2023-06-22T06:43:24;20.10;99.90
15131;DHT22;7666;50.920;4.628;2023-06-22T06:46:10;20.10;99.90
15131;DHT22;7666;50.920;4.628;2023-06-22T06:48:56;20.20;99.90
15131;DHT22;7666;50.920;4.628;2023-06-22T06:51:42;20.20;99.90
15131;DHT22;7666;50.920;4.628;2023-06-22T06:54:28;20.30;99.90
15131;DHT22;7666;50.920;4.628;2023-06-22T06:57:14;20.40;99.90
15131;DHT22;7666;50.920;4.628;2023-06-22T07:00:01;20.50;99.90
15131;DHT22;7666;50.920;4.628;2023-06-22T07:02:47;20.50;99.90
15131;DHT22;7666;50.920;4.628;2023-06-22T07:05:34;20.50;99.90
15131;DHT22;7666;50.920;4.628;2023-06-22T07:08:20;20.60;99.90
15131;DHT22;7666;50.920;4.628;2023-06-22T07:11:06;20.60;99.90
15131;DHT22;7666;50.920;4.628;2023-06-22T07:13:52;20.70;99.90
15131;DHT22;7666;50.920;4.628;2023-06-22T07:16:38;20.70;99.90
15131;DHT22;7666;50.920;4.628;2023-06-22T07:19:28;20.80;99.90
15131;DHT22;7666;50.920;4.628;2023-06-22T07:22:14;20.70;99.90
15131;DHT22;7666;50.920;4.628;2023-06-22T07:25:00;20.80;99.90
15131;DHT22;7666;50.920;4.628;2023-06-22T07:28:04;20.90;99.90
15131;DHT22;7666;50.920;4.628;2023-06-22T07:30:50;20.90;99.90
15131;DHT22;7666;50.920;4.628;2023-06-22T07:33:37;20.90;99.90
15131;DHT22;7666;50.920;4.628;2023-06-22T07:36:22;21.00;99.90
15131;DHT22;7666;50.920;4.628;2023-06-22T07:39:08;21.10;99.90
15131;DHT22;7666;50.920;4.628;2023-06-22T07:41:54;21.20;99.90
15131;DHT22;7666;50.920;4.628;2023-06-22T07:44:40;21.20;99.90
15131;DHT22;7666;50.920;4.628;2023-06-22T07:47:26;21.20;99.90
15131;DHT22;7666;50.920;4.628;2023-06-22T07:50:13;21.10;99.90
15131;DHT22;7666;50.920;4.628;2023-06-22T07:52:59;21.00;99.90
15131;DHT22;7666;50.920;4.628;2023-06-22T07:55:45;20.90;99.90
15131;DHT22;7666;50.920;4.628;2023-06-22T07:58:31;20.80;99.90
15131;DHT22;7666;50.920;4.628;2023-06-22T08:01:17;20.70;99.90
15131;DHT22;7666;50.920;4.628;2023-06-22T08:04:06;20.70;99.90
15131;DHT22;7666;50.920;4.628;2023-06-22T08:06:52;20.70;99.90
15131;DHT22;7666;50.920;4.628;2023-06-22T08:09:46;20.70;99.90
15131;DHT22;7666;50.920;4.628;2023-06-22T08:12:32;20.70;99.90
15131;DHT22;7666;50.920;4.628;2023-06-22T08:15:19;20.70;99.90
15131;DHT22;7666;50.920;4.628;2023-06-22T08:18:05;20.70;99.90
15131;DHT22;7666;50.920;4.628;2023-06-22T08:20:51;20.70;99.90
15131;DHT22;7666;50.920;4.628;2023-06-22T08:23:37;20.70;99.90
15131;DHT22;7666;50.920;4.628;2023-06-22T08:26:23;20.60;99.90
15131;DHT22;7666;50.920;4.628;2023-06-22T08:29:09;20.60;99.90
15131;DHT22;7666;50.920;4.628;2023-06-22T08:31:55;20.60;99.90
15131;DHT22;7666;50.920;4.628;2023-06-22T08:34:41;20.50;99.90
15131;DHT22;7666;50.920;4.628;2023-06-22T08:37:28;20.60;99.90
15131;DHT22;7666;50.920;4.628;2023-06-22T08:40:17;20.60;99.90
15131;DHT22;7666;50.920;4.628;2023-06-22T08:43:04;20.60;99.90
15131;DHT22;7666;50.920;4.628;2023-06-22T08:45:51;20.60;99.90
15131;DHT22;7666;50.920;4.628;2023-06-22T08:48:37;20.60;99.90
15131;DHT22;7666;50.920;4.628;2023-06-22T08:51:23;20.60;99.90
15131;DHT22;7666;50.920;4.628;2023-06-22T08:54:09;20.60;99.90
15131;DHT22;7666;50.920;4.628;2023-06-22T08:56:56;20.60;99.90
15131;DHT22;7666;50.920;4.628;2023-06-22T08:59:42;20.60;99.90
15131;DHT22;7666;50.920;4.628;2023-06-22T09:02:28;20.60;99.90
15131;DHT22;7666;50.920;4.628;2023-06-22T09:05:16;20.70;99.90
15131;DHT22;7666;50.920;4.628;2023-06-22T09:08:03;20.80;99.90
15131;DHT22;7666;50.920;4.628;2023-06-22T09:10:49;20.90;99.90
15131;DHT22;7666;50.920;4.628;2023-06-22T09:13:35;20.90;99.90
15131;DHT22;7666;50.920;4.628;2023-06-22T09:16:22;21.00;99.90
15131;DHT22;7666;50.920;4.628;2023-06-22T09:19:08;21.00;99.90
15131;DHT22;7666;50.920;4.628;2023-06-22T09:21:54;21.00;99.90
15131;DHT22;7666;50.920;4.628;2023-06-22T09:24:40;21.00;99.90
15131;DHT22;7666;50.920;4.628;2023-06-22T09:27:26;21.10;99.90
15131;DHT22;7666;50.920;4.628;2023-06-22T09:30:12;21.10;99.90
15131;DHT22;7666;50.920;4.628;2023-06-22T09:32:58;21.00;99.90
15131;DHT22;7666;50.920;4.628;2023-06-22T09:35:45;20.90;99.90
15131;DHT22;7666;50.920;4.628;2023-06-22T09:38:31;21.00;99.90
15131;DHT22;7666;50.920;4.628;2023-06-22T09:41:17;21.00;99.90
15131;DHT22;7666;50.920;4.628;2023-06-22T09:44:03;21.00;99.90
15131;DHT22;7666;50.920;4.628;2023-06-22T09:46:49;20.90;99.90
15131;DHT22;7666;50.920;4.628;2023-06-22T09:49:35;20.90;99.90
15131;DHT22;7666;50.920;4.628;2023-06-22T09:52:22;20.80;99.90
15131;DHT22;7666;50.920;4.628;2023-06-22T09:55:08;20.70;99.90
15131;DHT22;7666;50.920;4.628;2023-06-22T09:57:54;20.60;99.90
15131;DHT22;7666;50.920;4.628;2023-06-22T10:00:41;20.50;99.90
15131;DHT22;7666;50.920;4.628;2023-06-22T10:03:27;20.40;99.90
15131;DHT22;7666;50.920;4.628;2023-06-22T10:06:13;20.30;99.90
15131;DHT22;7666;50.920;4.628;2023-06-22T10:08:59;20.20;99.90
15131;DHT22;7666;50.920;4.628;2023-06-22T10:11:45;20.00;99.90
15131;DHT22;7666;50.920;4.628;2023-06-22T10:14:31;19.60;99.90
15131;DHT22;7666;50.920;4.628;2023-06-22T10:17:17;19.20;99.90
15131;DHT22;7666;50.920;4.628;2023-06-22T10:20:03;19.10;99.90
15131;DHT22;7666;50.920;4.628;2023-06-22T10:22:57;19.00;99.90
15131;DHT22;7666;50.920;4.628;2023-06-22T10:25:43;18.90;99.90
15131;DHT22;7666;50.920;4.628;2023-06-22T10:28:29;18.80;99.90
15131;DHT22;7666;50.920;4.628;2023-06-22T10:31:15;18.70;99.90
15131;DHT22;7666;50.920;4.628;2023-06-22T10:34:02;18.70;99.90
15131;DHT22;7666;50.920;4.628;2023-06-22T10:36:48;18.60;99.90
15131;DHT22;7666;50.920;4.628;2023-06-22T10:39:34;18.50;99.90
15131;DHT22;7666;50.920;4.628;2023-06-22T10:42:20;18.50;99.90
15131;DHT22;7666;50.920;4.628;2023-06-22T10:45:06;18.50;99.90
15131;DHT22;7666;50.920;4.628;2023-06-22T10:47:53;18.50;99.90
15131;DHT22;7666;50.920;4.628;2023-06-22T10:50:38;18.50;99.90
15131;DHT22;7666;50.920;4.628;2023-06-22T10:53:24;18.50;99.90
15131;DHT22;7666;50.920;4.628;2023-06-22T10:56:10;18.40;99.90
15131;DHT22;7666;50.920;4.628;2023-06-22T10:58:56;18.40;99.90
15131;DHT22;7666;50.920;4.628;2023-06-22T11:01:42;18.30;99.90
15131;DHT22;7666;50.920;4.628;2023-06-22T11:04:29;18.30;99.90
15131;DHT22;7666;50.920;4.628;2023-06-22T11:07:15;18.30;99.90
15131;DHT22;7666;50.920;4.628;2023-06-22T11:10:01;18.40;99.90
15131;DHT22;7666;50.920;4.628;2023-06-22T11:12:47;18.40;99.90
15131;DHT22;7666;50.920;4.628;2023-06-22T11:15:33;18.40;99.90
15131;DHT22;7666;50.920;4.628;2023-06-22T11:18:19;18.50;99.90
15131;DHT22;7666;50.920;4.628;2023-06-22T11:21:05;18.50;99.90
15131;DHT22;7666;50.920;4.628;2023-06-22T11:23:51;18.60;99.90
15131;DHT22;7666;50.920;4.628;2023-06-22T11:26:37;18.70;99.90
15131;DHT22;7666;50.920;4.628;2023-06-22T11:29:23;18.80;99.90
15131;DHT22;7666;50.920;4.628;2023-06-22T11:32:09;18.90;99.90
15131;DHT22;7666;50.920;4.628;2023-06-22T11:34:56;18.90;99.90
15131;DHT22;7666;50.920;4.628;2023-06-22T11:37:42;19.10;99.90
15131;DHT22;7666;50.920;4.628;2023-06-22T11:40:28;19.10;99.90
15131;DHT22;7666;50.920;4.628;2023-06-22T11:43:14;19.10;99.90
15131;DHT22;7666;50.920;4.628;2023-06-22T11:46:01;19.10;99.90
15131;DHT22;7666;50.920;4.628;2023-06-22T11:48:48;19.10;99.90
15131;DHT22;7666;50.920;4.628;2023-06-22T11:51:34;19.10;99.90
15131;DHT22;7666;50.920;4.628;2023-06-22T11:54:20;19.10;99.90
15131;DHT22;7666;50.920;4.628;2023-06-22T11:57:06;19.10;99.90
15131;DHT22;7666;50.920;4.628;2023-06-22T11:59:52;19.10;99.90
15131;DHT22;7666;50.920;4.628;2023-06-22T12:02:38;19.00;99.90
15131;DHT22;7666;50.920;4.628;2023-06-22T12:05:23;19.00;99.90
15131;DHT22;7666;50.920;4.628;2023-06-22T12:08:10;19.00;99.90
15131;DHT22;7666;50.920;4.628;2023-06-22T12:10:57;18.90;99.90
15131;DHT22;7666;50.920;4.628;2023-06-22T12:13:43;18.90;99.90
15131;DHT22;7666;50.920;4.628;2023-06-22T12:16:29;18.90;99.90
15131;DHT22;7666;50.920;4.628;2023-06-22T12:19:15;18.80;99.90
15131;DHT22;7666;50.920;4.628;2023-06-22T12:22:01;18.80;99.90
15131;DHT22;7666;50.920;4.628;2023-06-22T12:24:47;18.80;99.90
15131;DHT22;7666;50.920;4.628;2023-06-22T12:27:33;18.80;99.90
15131;DHT22;7666;50.920;4.628;2023-06-22T12:30:19;18.70;99.90
15131;DHT22;7666;50.920;4.628;2023-06-22T12:33:05;18.70;99.90
15131;DHT22;7666;50.920;4.628;2023-06-22T12:35:51;18.70;99.90
15131;DHT22;7666;50.920;4.628;2023-06-22T12:38:37;18.70;99.90
15131;DHT22;7666;50.920;4.628;2023-06-22T12:41:23;18.70;99.90
15131;DHT22;7666;50.920;4.628;2023-06-22T12:44:09;18.70;99.90
15131;DHT22;7666;50.920;4.628;2023-06-22T12:46:55;18.70;99.90
15131;DHT22;7666;50.920;4.628;2023-06-22T12:49:42;18.70;99.90
15131;DHT22;7666;50.920;4.628;2023-06-22T12:52:30;18.70;99.90
15131;DHT22;7666;50.920;4.628;2023-06-22T12:55:16;18.70;99.90
15131;DHT22;7666;50.920;4.628;2023-06-22T12:58:02;18.70;99.90
15131;DHT22;7666;50.920;4.628;2023-06-22T13:00:49;18.70;99.90
15131;DHT22;7666;50.920;4.628;2023-06-22T13:03:34;18.70;99.90
15131;DHT22;7666;50.920;4.628;2023-06-22T13:06:20;18.70;99.90
15131;DHT22;7666;50.920;4.628;2023-06-22T13:09:07;18.60;99.90
15131;DHT22;7666;50.920;4.628;2023-06-22T13:11:53;18.70;99.90
15131;DHT22;7666;50.920;4.628;2023-06-22T13:14:39;18.70;99.90
15131;DHT22;7666;50.920;4.628;2023-06-22T13:17:25;18.70;99.90
15131;DHT22;7666;50.920;4.628;2023-06-22T13:20:11;18.70;99.90
15131;DHT22;7666;50.920;4.628;2023-06-22T13:22:57;18.70;99.90
15131;DHT22;7666;50.920;4.628;2023-06-22T13:25:43;18.70;99.90
15131;DHT22;7666;50.920;4.628;2023-06-22T13:28:29;18.70;99.90
15131;DHT22;7666;50.920;4.628;2023-06-22T13:31:15;18.70;99.90
15131;DHT22;7666;50.920;4.628;2023-06-22T13:34:01;18.70;99.90
15131;DHT22;7666;50.920;4.628;2023-06-22T13:36:47;18.70;99.90
15131;DHT22;7666;50.920;4.628;2023-06-22T13:39:33;18.70;99.90
15131;DHT22;7666;50.920;4.628;2023-06-22T13:42:19;18.70;99.90
15131;DHT22;7666;50.920;4.628;2023-06-22T13:45:06;18.70;99.90
15131;DHT22;7666;50.920;4.628;2023-06-22T13:47:52;18.70;99.90
15131;DHT22;7666;50.920;4.628;2023-06-22T13:50:38;18.60;99.90
15131;DHT22;7666;50.920;4.628;2023-06-22T13:53:24;18.60;99.90
15131;DHT22;7666;50.920;4.628;2023-06-22T13:56:11;18.60;99.90
15131;DHT22;7666;50.920;4.628;2023-06-22T13:58:57;18.60;99.90
15131;DHT22;7666;50.920;4.628;2023-06-22T14:01:43;18.60;99.90
15131;DHT22;7666;50.920;4.628;2023-06-22T14:04:29;18.70;99.90
15131;DHT22;7666;50.920;4.628;2023-06-22T14:07:15;18.60;99.90
15131;DHT22;7666;50.920;4.628;2023-06-22T14:10:01;18.60;99.90
15131;DHT22;7666;50.920;4.628;2023-06-22T14:12:47;18.60;99.90
15131;DHT22;7666;50.920;4.628;2023-06-22T14:15:33;18.60;99.90
15131;DHT22;7666;50.920;4.628;2023-06-22T14:18:19;18.50;99.90
15131;DHT22;7666;50.920;4.628;2023-06-22T14:21:08;18.60;99.90
15131;DHT22;7666;50.920;4.628;2023-06-22T14:23:54;18.60;99.90
15131;DHT22;7666;50.920;4.628;2023-06-22T14:26:40;18.60;99.90
15131;DHT22;7666;50.920;4.628;2023-06-22T14:29:26;18.60;99.90
15131;DHT22;7666;50.920;4.628;2023-06-22T14:32:12;18.60;99.90
15131;DHT22;7666;50.920;4.628;2023-06-22T14:34:58;18.60;99.90
15131;DHT22;7666;50.920;4.628;2023-06-22T14:37:44;18.60;99.90
15131;DHT22;7666;50.920;4.628;2023-06-22T14:40:30;18.70;99.90
15131;DHT22;7666;50.920;4.628;2023-06-22T14:43:16;18.60;99.90
15131;DHT22;7666;50.920;4.628;2023-06-22T14:46:02;18.60;99.90
15131;DHT22;7666;50.920;4.628;2023-06-22T14:48:48;18.70;99.90
15131;DHT22;7666;50.920;4.628;2023-06-22T14:51:34;18.70;99.90
15131;DHT22;7666;50.920;4.628;2023-06-22T14:54:20;18.60;99.90
15131;DHT22;7666;50.920;4.628;2023-06-22T14:57:06;18.60;99.90
15131;DHT22;7666;50.920;4.628;2023-06-22T14:59:52;18.60;99.90
15131;DHT22;7666;50.920;4.628;2023-06-22T15:02:38;18.60;99.90
15131;DHT22;7666;50.920;4.628;2023-06-22T15:05:24;18.70;99.90
15131;DHT22;7666;50.920;4.628;2023-06-22T15:08:10;18.60;99.90
15131;DHT22;7666;50.920;4.628;2023-06-22T15:10:59;18.70;99.90
15131;DHT22;7666;50.920;4.628;2023-06-22T15:13:47;18.70;99.90
15131;DHT22;7666;50.920;4.628;2023-06-22T15:16:33;18.70;99.90
15131;DHT22;7666;50.920;4.628;2023-06-22T15:19:19;18.70;99.90
15131;DHT22;7666;50.920;4.628;2023-06-22T15:22:06;18.70;99.90
15131;DHT22;7666;50.920;4.628;2023-06-22T15:24:52;18.80;99.90
15131;DHT22;7666;50.920;4.628;2023-06-22T15:27:43;18.80;99.90
15131;DHT22;7666;50.920;4.628;2023-06-22T15:30:29;18.90;99.90
15131;DHT22;7666;50.920;4.628;2023-06-22T15:33:16;18.90;99.90
15131;DHT22;7666;50.920;4.628;2023-06-22T15:36:02;18.90;99.90
15131;DHT22;7666;50.920;4.628;2023-06-22T15:38:49;19.00;99.90
15131;DHT22;7666;50.920;4.628;2023-06-22T15:41:35;19.00;99.90
15131;DHT22;7666;50.920;4.628;2023-06-22T15:44:21;19.00;99.90
15131;DHT22;7666;50.920;4.628;2023-06-22T15:47:07;19.10;99.90
15131;DHT22;7666;50.920;4.628;2023-06-22T15:49:53;19.20;99.90
15131;DHT22;7666;50.920;4.628;2023-06-22T15:52:43;19.10;99.90
15131;DHT22;7666;50.920;4.628;2023-06-22T15:55:33;19.10;99.90
15131;DHT22;7666;50.920;4.628;2023-06-22T15:58:20;19.10;99.90
15131;DHT22;7666;50.920;4.628;2023-06-22T16:01:07;19.20;99.90
15131;DHT22;7666;50.920;4.628;2023-06-22T16:03:54;19.20;99.90
15131;DHT22;7666;50.920;4.628;2023-06-22T16:06:41;19.20;99.90
15131;DHT22;7666;50.920;4.628;2023-06-22T16:09:27;19.10;99.90
15131;DHT22;7666;50.920;4.628;2023-06-22T16:12:14;19.20;99.90
15131;DHT22;7666;50.920;4.628;2023-06-22T16:15:00;19.10;99.90
15131;DHT22;7666;50.920;4.628;2023-06-22T16:17:46;19.10;99.90
15131;DHT22;7666;50.920;4.628;2023-06-22T16:20:32;19.10;99.90
15131;DHT22;7666;50.920;4.628;2023-06-22T16:23:18;19.10;99.90
15131;DHT22;7666;50.920;4.628;2023-06-22T16:26:04;19.10;99.90
15131;DHT22;7666;50.920;4.628;2023-06-22T16:28:51;19.10;99.90
15131;DHT22;7666;50.920;4.628;2023-06-22T16:31:37;19.00;99.90
15131;DHT22;7666;50.920;4.628;2023-06-22T16:34:23;19.00;99.90
15131;DHT22;7666;50.920;4.628;2023-06-22T16:37:09;19.00;99.90
15131;DHT22;7666;50.920;4.628;2023-06-22T16:39:55;19.00;99.90
15131;DHT22;7666;50.920;4.628;2023-06-22T16:42:45;19.00;99.90
15131;DHT22;7666;50.920;4.628;2023-06-22T16:45:31;19.00;99.90
15131;DHT22;7666;50.920;4.628;2023-06-22T16:48:19;19.00;99.90
15131;DHT22;7666;50.920;4.628;2023-06-22T16:51:05;19.00;99.90
15131;DHT22;7666;50.920;4.628;2023-06-22T16:53:54;19.00;99.90
15131;DHT22;7666;50.920;4.628;2023-06-22T16:56:42;19.10;99.90
15131;DHT22;7666;50.920;4.628;2023-06-22T16:59:28;19.10;99.90
15131;DHT22;7666;50.920;4.628;2023-06-22T17:02:17;19.10;99.90
15131;DHT22;7666;50.920;4.628;2023-06-22T17:05:05;19.20;99.90
15131;DHT22;7666;50.920;4.628;2023-06-22T17:07:59;19.20;99.90
15131;DHT22;7666;50.920;4.628;2023-06-22T17:10:46;19.20;99.90
15131;DHT22;7666;50.920;4.628;2023-06-22T17:13:34;19.30;99.90
15131;DHT22;7666;50.920;4.628;2023-06-22T17:16:22;19.30;99.90
15131;DHT22;7666;50.920;4.628;2023-06-22T17:19:09;19.30;99.90
15131;DHT22;7666;50.920;4.628;2023-06-22T17:21:56;19.20;99.90
15131;DHT22;7666;50.920;4.628;2023-06-22T17:24:43;19.20;99.90
15131;DHT22;7666;50.920;4.628;2023-06-22T17:27:29;19.30;99.90
15131;DHT22;7666;50.920;4.628;2023-06-22T17:30:18;19.20;99.90
15131;DHT22;7666;50.920;4.628;2023-06-22T17:33:13;19.20;99.90
15131;DHT22;7666;50.920;4.628;2023-06-22T17:36:02;19.30;99.90
15131;DHT22;7666;50.920;4.628;2023-06-22T17:38:48;19.30;99.90
15131;DHT22;7666;50.920;4.628;2023-06-22T17:41:37;19.30;99.90
15131;DHT22;7666;50.920;4.628;2023-06-22T17:44:25;19.30;99.90
15131;DHT22;7666;50.920;4.628;2023-06-22T17:47:11;19.30;99.90
15131;DHT22;7666;50.920;4.628;2023-06-22T17:50:05;19.30;99.90
15131;DHT22;7666;50.920;4.628;2023-06-22T17:52:53;19.30;99.90
15131;DHT22;7666;50.920;4.628;2023-06-22T17:55:39;19.30;99.90
15131;DHT22;7666;50.920;4.628;2023-06-22T17:58:25;19.30;99.90
15131;DHT22;7666;50.920;4.628;2023-06-22T18:01:13;19.30;99.90